Time;durP1;ratioP1;P1;durP2;ratioP2;P2;SDS_P1;SDS_P2;PMS_P1;PMS_P2;Temp;Humidity;BMP_temperature;BMP_pressure;BME280_temperature;BME280_humidity;BME280_pressure;Samples;Min_cycle;Max_cycle;Signal;HPM_P1;HPM_P2
2023/01/23 00:01:36;;;;;;;27.10;17.40;;;;;;;5.72;70.36;103167.33;106993;1268;24252;-59
2023/01/23 00:04:04;;;;;;;26.60;17.20;;;;;;;5.73;70.14;103168.92;106298;1269;1003096;-59
2023/01/23 00:06:31;;;;;;;28.00;17.70;;;;;;;5.75;70.11;103167.96;106852;1268;22584;-58
2023/01/23 00:08:58;;;;;;;25.30;16.60;;;;;;;5.76;69.88;103167.84;107065;1267;25410;-59
2023/01/23 00:11:27;;;;;;;30.50;17.50;;;;;;;5.76;69.72;103171.62;106957;1267;25327;-59
2023/01/23 00:13:57;;;;;;;27.40;18.70;;;;;;;5.73;69.46;103175.46;107007;1272;24749;-59
2023/01/23 00:16:26;;;;;;;28.10;20.00;;;;;;;5.68;69.29;103176.67;106329;1268;1002921;-59
2023/01/23 00:18:53;;;;;;;26.70;19.80;;;;;;;5.64;69.52;103178.95;107064;1268;25436;-58
2023/01/23 00:21:23;;;;;;;30.30;20.30;;;;;;;5.61;69.31;103181.91;106952;1267;22527;-59
2023/01/23 00:23:51;;;;;;;26.00;19.40;;;;;;;5.59;69.52;103178.58;107024;1272;22535;-58
2023/01/23 00:26:21;;;;;;;30.60;19.10;;;;;;;5.58;69.45;103178.34;107046;1269;25649;-59
2023/01/23 00:28:49;;;;;;;25.30;18.10;;;;;;;5.54;69.36;103180.80;107238;1267;23472;-58
2023/01/23 00:31:26;;;;;;;24.60;18.20;;;;;;;5.52;69.48;103178.48;107002;1267;25523;-59
2023/01/23 00:33:55;;;;;;;26.10;19.40;;;;;;;5.50;69.40;103174.61;106932;1267;26501;-59
2023/01/23 00:36:22;;;;;;;27.00;18.50;;;;;;;5.49;69.32;103174.25;106060;1267;1002858;-59
2023/01/23 00:38:49;;;;;;;26.10;18.80;;;;;;;5.48;69.19;103179.02;106587;1274;25366;-58
2023/01/23 00:41:16;;;;;;;24.50;17.40;;;;;;;5.48;69.25;103180.91;106689;1272;25498;-58
2023/01/23 00:43:45;;;;;;;22.90;17.60;;;;;;;5.48;69.21;103181.08;106540;1271;25352;-58
2023/01/23 00:46:13;;;;;;;23.80;16.50;;;;;;;5.48;69.10;103179.55;107128;1269;24256;-58
2023/01/23 00:48:40;;;;;;;23.70;17.30;;;;;;;5.49;68.93;103181.29;107112;1268;25428;-58
2023/01/23 00:51:07;;;;;;;22.30;17.20;;;;;;;5.50;68.97;103187.36;107025;1275;25359;-58
2023/01/23 00:53:35;;;;;;;22.90;17.30;;;;;;;5.52;68.75;103184.16;107122;1269;22807;-58
2023/01/23 00:56:02;;;;;;;23.70;17.40;;;;;;;5.53;68.46;103185.38;106994;1268;22532;-58
2023/01/23 00:58:30;;;;;;;23.60;18.60;;;;;;;5.51;68.08;103183.79;106884;1267;26501;-58
2023/01/23 01:00:57;;;;;;;25.10;16.80;;;;;;;5.50;68.04;103188.04;106699;1267;25341;-58
2023/01/23 01:03:24;;;;;;;21.70;16.80;;;;;;;5.50;68.13;103189.09;106937;1267;22636;-60
2023/01/23 07:23:20;;;;;;;13.90;11.80;;;;;;;4.21;66.45;103298.59;105564;1289;22569;-58
2023/01/23 07:25:47;;;;;;;15.00;12.30;;;;;;;4.29;65.48;103296.20;106511;1259;25397;-58
2023/01/23 07:28:15;;;;;;;16.50;13.00;;;;;;;4.36;65.38;103295.50;106607;1275;26728;-58
2023/01/23 07:30:42;;;;;;;13.70;12.10;;;;;;;4.43;65.12;103297.33;105911;1272;392384;-59
2023/01/23 07:33:11;;;;;;;13.00;10.90;;;;;;;4.50;64.79;103303.31;106287;1278;25349;-59
2023/01/23 07:35:40;;;;;;;12.50;10.20;;;;;;;4.55;64.50;103305.78;106614;1274;25396;-59
2023/01/23 07:38:07;;;;;;;13.50;11.00;;;;;;;4.59;64.47;103305.78;106658;1274;22520;-59
2023/01/23 07:40:37;;;;;;;17.20;12.30;;;;;;;4.62;64.38;103302.98;107011;1271;23183;-60
2023/01/23 07:43:04;;;;;;;15.40;10.90;;;;;;;4.64;64.28;103299.65;106965;1275;22626;-59
2023/01/23 07:45:31;;;;;;;13.30;10.60;;;;;;;4.65;64.19;103296.10;106590;1278;22906;-59
2023/01/23 07:47:59;;;;;;;21.10;15.60;;;;;;;4.68;64.01;103296.54;106457;1279;25424;-59
2023/01/23 07:50:26;;;;;;;16.90;13.40;;;;;;;4.67;64.00;103299.95;107223;1270;25449;-60
2023/01/23 07:52:53;;;;;;;12.90;10.40;;;;;;;4.68;63.66;103303.59;107043;1270;24238;-59
2023/01/23 07:55:23;;;;;;;13.60;11.50;;;;;;;4.68;63.66;103303.58;107179;1270;25412;-59
2023/01/23 07:57:50;;;;;;;16.10;13.00;;;;;;;4.68;63.62;103301.02;107136;1274;22557;-59
2023/01/23 08:00:18;;;;;;;14.60;12.50;;;;;;;4.69;63.60;103305.37;106910;1272;25445;-59
2023/01/23 08:02:46;;;;;;;11.90;10.60;;;;;;;4.70;63.19;103310.39;106468;1272;22634;-59
2023/01/23 08:05:13;;;;;;;15.30;10.00;;;;;;;4.71;63.41;103307.85;106831;1270;25421;-59
2023/01/23 08:07:40;;;;;;;15.30;10.70;;;;;;;4.73;63.09;103318.24;106899;1271;22523;-60
2023/01/23 08:13:36;;;;;;;12.80;10.90;;;;;;;4.76;63.28;103320.14;103591;1307;544901;-58
2023/01/23 08:16:04;;;;;;;13.30;10.80;;;;;;;4.75;63.39;103322.46;105843;1278;22547;-59
2023/01/23 08:18:32;;;;;;;12.90;10.10;;;;;;;4.74;63.20;103321.24;105983;1283;25521;-58
2023/01/23 08:21:00;;;;;;;37.60;22.00;;;;;;;4.75;63.29;103322.65;105213;1277;1004075;-58
2023/01/23 08:23:29;;;;;;;28.10;18.60;;;;;;;4.77;63.17;103325.14;105832;1284;25265;-58
2023/01/23 08:25:58;;;;;;;17.50;12.70;;;;;;;4.78;63.19;103323.81;105925;1282;24217;-59
2023/01/23 08:28:25;;;;;;;14.80;11.90;;;;;;;4.80;62.81;103326.30;105784;1284;24301;-59
2023/01/23 08:30:52;;;;;;;13.70;9.80;;;;;;;4.80;62.65;103332.65;106473;1281;22669;-59
2023/01/23 08:33:20;;;;;;;11.40;9.30;;;;;;;4.81;62.82;103331.67;105868;1282;22551;-58
2023/01/23 16:19:24;;;;;;;37.20;21.70;;;;;;;4.53;72.05;103313.43;104595;1305;22552;-57
2023/01/23 16:21:52;;;;;;;33.00;20.10;;;;;;;4.64;71.03;103314.63;105954;1281;25366;-57
2023/01/23 16:24:34;;;;;;;33.40;18.70;;;;;;;4.72;70.45;103315.81;105198;1282;1002832;-58
2023/01/23 16:27:01;;;;;;;31.90;18.00;;;;;;;4.79;70.04;103315.92;105790;1279;391512;-57
2023/01/23 16:29:30;;;;;;;31.90;18.00;;;;;;;4.84;69.76;103313.05;106168;1279;25358;-57
2023/01/23 16:32:00;;;;;;;32.30;16.10;;;;;;;4.89;69.44;103312.06;106342;1279;25389;-57
2023/01/23 16:34:27;;;;;;;26.20;16.40;;;;;;;4.92;68.99;103317.00;105549;1279;1003211;-59
2023/01/23 16:36:56;;;;;;;24.50;15.80;;;;;;;4.94;68.71;103319.01;106353;1279;23278;-58
2023/01/23 16:39:25;;;;;;;29.50;17.10;;;;;;;4.98;68.56;103322.59;105860;1284;24478;-59
2023/01/23 16:41:55;;;;;;;23.70;15.10;;;;;;;5.02;68.39;103324.27;106353;1279;22547;-59
2023/01/23 16:44:22;;;;;;;32.70;15.20;;;;;;;5.05;68.30;103325.10;106388;1279;25368;-59
2023/01/23 16:46:50;;;;;;;30.30;16.50;;;;;;;5.06;67.98;103326.36;105388;1281;1016352;-59
2023/01/23 16:49:18;;;;;;;29.80;14.80;;;;;;;5.08;67.80;103326.28;106370;1279;22760;-59
2023/01/23 16:51:47;;;;;;;28.10;15.30;;;;;;;5.10;67.88;103327.89;106110;1281;22539;-59
2023/01/23 16:54:16;;;;;;;30.70;16.00;;;;;;;5.12;67.81;103326.60;106321;1279;23170;-59
2023/01/23 16:56:46;;;;;;;24.60;12.70;;;;;;;5.12;67.39;103330.23;105926;1279;22540;-59
2023/01/23 16:59:19;;;;;;;25.10;13.60;;;;;;;5.12;67.46;103329.55;106286;1282;22651;-59
2023/01/23 17:01:48;;;;;;;26.50;14.80;;;;;;;5.15;67.33;103329.66;106426;1279;25428;-59
2023/01/23 17:04:16;;;;;;;32.10;14.70;;;;;;;5.16;66.93;103331.08;106146;1279;22546;-59
2023/01/23 17:06:43;;;;;;;24.20;14.00;;;;;;;5.16;67.00;103335.23;106313;1279;25375;-59
2023/01/23 17:09:11;;;;;;;21.20;13.40;;;;;;;5.18;66.91;103335.30;106128;1279;24210;-59
2023/01/23 17:11:41;;;;;;;27.80;15.10;;;;;;;5.19;66.78;103335.14;106355;1281;25456;-58
2023/01/23 17:14:29;;;;;;;24.50;13.60;;;;;;;5.19;66.55;103335.00;106716;1276;25497;-59
2023/01/23 17:17:00;;;;;;;25.20;14.00;;;;;;;5.20;66.79;103337.10;105619;1278;1003181;-57
2023/01/23 17:19:32;;;;;;;27.10;13.90;;;;;;;5.21;66.74;103337.16;106708;1278;24011;-59
2023/01/23 17:21:59;;;;;;;;;;;;;;;5.22;66.71;103337.36;106393;1272;25284;-59
2023/01/23 17:24:26;;;;;;;23.70;14.70;;;;;;;5.24;66.75;103336.90;106742;1272;25271;-59
2023/01/23 17:26:53;;;;;;;30.50;14.10;;;;;;;5.23;66.47;103334.83;106730;1275;25395;-59
2023/01/23 17:29:21;;;;;;;25.40;13.50;;;;;;;5.24;66.46;103336.40;106771;1275;25379;-58
2023/01/23 17:31:49;;;;;;;24.00;14.50;;;;;;;5.26;66.54;103335.46;106752;1272;25425;-59
2023/01/23 17:34:21;;;;;;;22.70;13.20;;;;;;;5.29;66.46;103336.08;105868;1271;1002486;-59
2023/01/23 17:36:48;;;;;;;23.20;14.40;;;;;;;5.30;66.39;103338.87;106413;1278;22540;-59
2023/01/23 17:39:15;;;;;;;31.20;15.70;;;;;;;5.29;66.31;103335.55;106334;1256;25505;-59
2023/01/23 17:41:42;;;;;;;27.10;14.70;;;;;;;5.29;66.10;103339.67;106439;1267;22527;-59
2023/01/23 17:44:10;;;;;;;22.30;14.30;;;;;;;5.28;66.08;103339.50;106371;1272;25352;-59
2023/01/23 17:46:38;;;;;;;23.70;14.40;;;;;;;5.28;66.14;103340.52;106370;1272;22546;-58
2023/01/23 17:49:26;;;;;;;24.00;15.10;;;;;;;5.28;65.95;103339.84;105646;1272;1002912;-58
2023/01/23 17:51:54;;;;;;;25.70;15.00;;;;;;;5.27;66.13;103339.80;106622;1273;22633;-58
2023/01/23 17:54:21;;;;;;;20.40;13.50;;;;;;;5.28;66.12;103337.60;106688;1275;24059;-58
2023/01/23 17:56:48;;;;;;;19.40;13.00;;;;;;;5.26;65.96;103335.79;106772;1272;25386;-58
2023/01/23 17:59:15;;;;;;;21.60;13.40;;;;;;;5.15;66.54;103335.49;106776;1275;25408;-58
2023/01/23 18:01:42;;;;;;;21.40;13.40;;;;;;;5.13;66.58;103337.66;106747;1275;25474;-58
2023/01/23 18:04:17;;;;;;;20.80;13.90;;;;;;;5.12;66.70;103337.77;106713;1271;25351;-58
2023/01/23 18:06:45;;;;;;;23.00;15.00;;;;;;;5.14;66.98;103339.60;106767;1275;25386;-58
2023/01/23 18:09:13;;;;;;;21.60;14.30;;;;;;;5.16;66.96;103334.68;106667;1275;25413;-57
2023/01/23 18:11:42;;;;;;;21.30;14.70;;;;;;;5.18;66.96;103339.92;106699;1270;25401;-58
2023/01/23 18:14:22;;;;;;;19.70;13.70;;;;;;;5.17;66.94;103335.79;106431;1278;25570;-58
2023/01/23 18:16:50;;;;;;;23.90;14.10;;;;;;;5.17;66.84;103335.09;106864;1275;25487;-58
2023/01/23 18:19:18;;;;;;;17.40;12.80;;;;;;;5.18;66.84;103330.10;106666;1268;24357;-58
2023/01/23 18:21:47;;;;;;;21.40;13.60;;;;;;;5.16;66.79;103335.73;106504;1270;22530;-58
2023/01/23 18:24:29;;;;;;;19.80;13.20;;;;;;;5.16;66.83;103335.03;106908;1267;25350;-58
2023/01/23 18:27:14;;;;;;;19.00;12.70;;;;;;;5.15;66.89;103337.25;106356;1266;1002850;-58
2023/01/23 18:29:49;;;;;;;18.30;12.70;;;;;;;5.13;66.86;103333.04;107213;1266;23399;-58
2023/01/23 18:32:40;;;;;;;19.10;13.60;;;;;;;5.13;66.94;103331.46;106875;1267;23359;-60
2023/01/23 18:35:36;;;;;;;20.80;14.30;;;;;;;5.11;67.15;103329.85;107073;1267;24215;-59
2023/01/23 18:41:25;;;;;;;20.30;13.60;;;;;;;5.09;67.50;103329.25;103615;1301;545048;-60
2023/01/23 18:44:15;;;;;;;24.00;14.60;;;;;;;5.04;67.60;103330.03;105252;1285;1003281;-59
2023/01/23 18:46:44;;;;;;;21.90;13.90;;;;;;;5.03;67.88;103328.98;105860;1285;22624;-58
2023/01/23 18:49:13;;;;;;;22.00;13.90;;;;;;;5.03;67.85;103327.77;105752;1284;22635;-58
2023/01/23 18:52:10;;;;;;;20.10;13.70;;;;;;;5.03;68.08;103327.94;105654;1289;25427;-58
2023/01/23 18:54:41;;;;;;;;;;;;;;;5.00;68.15;103330.91;105434;1287;261344;-58
2023/01/23 18:57:31;;;;;;;23.40;14.10;;;;;;;4.96;68.53;103333.16;106026;1284;25346;-60
2023/01/23 19:00:28;;;;;;;22.30;14.90;;;;;;;4.93;68.83;103331.17;105863;1284;22573;-59
2023/01/23 19:03:00;;;;;;;18.80;13.80;;;;;;;4.92;69.22;103331.95;106046;1280;22555;-58
